Time;durP1;ratioP1;P1;durP2;ratioP2;P2;SDS_P1;SDS_P2;PMS_P1;PMS_P2;Temp;Humidity;BMP_temperature;BMP_pressure;BME280_temperature;BME280_humidity;BME280_pressure;Samples;Min_cycle;Max_cycle;Signal;HPM_P1;HPM_P2
2023/01/29 00:01:48;;;;;;;;;;;;;;;18.06;65.74;101163.78;7407053;19;1917;-54
2023/01/29 00:04:16;;;;;;;;;;;;;;;18.07;65.19;101157.47;7406079;19;1961;-54
2023/01/29 00:06:47;;;;;;;;;;;;;;;18.08;65.26;101164.50;7404370;19;1143;-54
2023/01/29 00:09:15;;;;;;;;;;;;;;;17.97;65.70;101165.34;7404374;19;2101;-54
2023/01/29 00:11:44;;;;;;;;;;;;;;;17.83;65.82;101158.41;7405407;19;1860;-54
2023/01/29 00:14:12;;;;;;;;;;;;;;;17.62;66.70;101154.66;7404692;19;1936;-54
2023/01/29 00:16:41;;;;;;;;;;;;;;;17.56;67.08;101177.38;7405958;19;1824;-54
2023/01/29 00:19:09;;;;;;;;;;;;;;;17.57;66.72;101186.25;7404096;19;2000;-55
2023/01/29 00:21:37;;;;;;;;;;;;;;;17.58;66.52;101170.06;7406048;19;1038;-54
2023/01/29 00:24:09;;;;;;;;;;;;;;;17.61;66.98;101182.38;7400979;19;1856;-54
2023/01/29 00:26:37;;;;;;;;;;;;;;;17.70;66.61;101182.50;7404862;19;1764;-54
2023/01/29 00:29:06;;;;;;;;;;;;;;;17.83;65.83;101182.47;7406145;19;1005;-54
2023/01/29 00:31:34;;;;;;;;;;;;;;;17.83;66.04;101193.19;7405988;19;1815;-54
2023/01/29 00:34:03;;;;;;;;;;;;;;;17.50;66.64;101200.06;7405264;19;1904;-55
2023/01/29 00:36:31;;;;;;;;;;;;;;;16.88;67.84;101205.56;7404565;19;1909;-55
2023/01/29 00:39:01;;;;;;;;;;;;;;;16.44;69.96;101210.41;7406041;19;1927;-55
2023/01/29 00:47:29;;;;;;;;;;;;;;;15.89;71.98;101204.41;7404183;19;1533;-55
2023/01/29 00:49:55;;;;;;;;;;;;;;;15.85;72.10;101216.22;7402376;19;1964;-54
2023/01/29 00:52:26;;;;;;;;;;;;;;;15.80;72.11;101205.03;7405633;19;1038;-55
2023/01/29 00:54:55;;;;;;;;;;;;;;;15.74;72.41;101213.47;7403909;19;2045;-54
2023/01/29 00:57:27;;;;;;;;;;;;;;;15.67;72.26;101215.63;7404608;19;1941;-55
2023/01/29 00:59:55;;;;;;;;;;;;;;;15.64;72.66;101223.84;7403779;19;1907;-55
2023/01/29 01:05:06;;;;;;;;;;;;;;;15.56;72.65;101212.84;7402996;19;1788;-55
2023/01/29 01:07:35;;;;;;;;;;;;;;;15.56;72.54;101222.63;7403423;19;1043;-55
2023/01/29 01:12:46;;;;;;;;;;;;;;;15.48;72.56;101221.34;7404510;19;1986;-54
2023/01/29 01:15:15;;;;;;;;;;;;;;;15.43;73.25;101226.09;7403062;19;2063;-55
2023/01/29 01:17:43;;;;;;;;;;;;;;;15.39;73.15;101221.94;7403453;19;1646;-55
2023/01/29 01:20:12;;;;;;;;;;;;;;;15.33;73.37;101222.34;7403818;19;1762;-55
2023/01/29 01:22:41;;;;;;;;;;;;;;;15.31;73.25;101216.25;7403149;19;1845;-55
2023/01/29 01:25:09;;;;;;;;;;;;;;;15.29;73.55;101220.84;7404159;19;2055;-55
2023/01/29 01:27:40;;;;;;;;;;;;;;;15.30;73.77;101230.56;7401951;19;1948;-55
2023/01/29 01:30:14;;;;;;;;;;;;;;;15.25;73.47;101233.50;7401593;19;1930;-55
2023/01/29 01:32:42;;;;;;;;;;;;;;;15.20;73.45;101227.63;7403860;19;2147;-55
2023/01/29 01:35:12;;;;;;;;;;;;;;;15.22;73.13;101216.84;7401326;19;1879;-55
2023/01/29 01:37:42;;;;;;;;;;;;;;;15.18;73.03;101228.66;7401996;19;1040;-55
2023/01/29 01:40:16;;;;;;;;;;;;;;;15.20;73.75;101226.75;7403407;19;1889;-55
2023/01/29 01:42:45;;;;;;;;;;;;;;;15.15;73.51;101221.72;7402684;19;2064;-54
2023/01/29 01:45:23;;;;;;;;;;;;;;;15.10;73.27;101222.03;7402089;19;1803;-55
2023/01/29 01:47:53;;;;;;;;;;;;;;;15.07;73.43;101226.69;7402583;19;1877;-55
2023/01/29 01:50:23;;;;;;;;;;;;;;;15.07;73.85;101221.38;7402536;19;1958;-55
2023/01/29 01:52:54;;;;;;;;;;;;;;;15.04;73.51;101229.53;7403525;19;1105;-55
2023/01/29 01:55:25;;;;;;;;;;;;;;;15.03;73.72;101218.06;7402723;19;1888;-55
2023/01/29 01:57:57;;;;;;;;;;;;;;;15.02;74.23;101218.13;7402941;19;1694;-55
2023/01/29 02:00:28;;;;;;;;;;;;;;;14.97;73.88;101221.09;7401689;19;1725;-55
2023/01/29 02:11:02;;;;;;;;;;;;;;;16.43;69.06;101210.50;7403759;19;1922;-54
2023/01/29 02:13:31;;;;;;;;;;;;;;;16.98;67.52;101213.78;7399187;19;1727;-54
2023/01/29 02:16:01;;;;;;;;;;;;;;;17.41;65.86;101206.13;7403433;19;1053;-54
2023/01/29 02:18:36;;;;;;;;;;;;;;;17.77;64.90;101203.47;7401066;19;1093;-55
2023/01/29 02:21:23;;;;;;;;;;;;;;;17.89;64.71;101222.13;7402429;19;2064;-55
2023/01/29 02:24:09;;;;;;;;;;;;;;;17.97;64.25;101208.16;7398614;19;1855;-54
2023/01/29 02:26:48;;;;;;;;;;;;;;;17.98;64.59;101212.53;7399841;19;1953;-54
2023/01/29 02:29:26;;;;;;;;;;;;;;;17.94;64.33;101207.53;7402350;19;1917;-54
2023/01/29 02:32:11;;;;;;;;;;;;;;;17.95;64.54;101212.78;7400993;19;952;-54
2023/01/29 02:37:25;;;;;;;;;;;;;;;17.91;64.59;101210.47;7403061;19;736;-54
2023/01/29 02:39:58;;;;;;;;;;;;;;;17.89;64.66;101230.16;7400874;19;2072;-54
2023/01/29 02:42:30;;;;;;;;;;;;;;;17.91;64.93;101229.22;7400452;19;1631;-55
2023/01/29 02:45:05;;;;;;;;;;;;;;;17.96;64.47;101224.34;7397852;19;1852;-54
2023/01/29 02:47:36;;;;;;;;;;;;;;;18.03;64.51;101225.59;7400959;19;1885;-54
2023/01/29 02:50:08;;;;;;;;;;;;;;;18.22;63.83;101215.16;7398802;19;1735;-55
2023/01/29 02:52:42;;;;;;;;;;;;;;;17.92;64.74;101230.91;7402443;19;958;-55
2023/01/29 02:55:13;;;;;;;;;;;;;;;17.16;66.85;101231.13;7400846;19;1996;-54
2023/01/29 02:57:43;;;;;;;;;;;;;;;16.58;68.75;101233.47;7401408;19;2018;-54
2023/01/29 03:00:17;;;;;;;;;;;;;;;16.26;69.27;101244.56;7400364;19;1732;-55
2023/01/29 03:02:50;;;;;;;;;;;;;;;16.06;69.66;101245.09;7400754;19;2256;-54
2023/01/29 03:05:20;;;;;;;;;;;;;;;16.12;70.47;101244.69;7399933;19;2010;-55
2023/01/29 03:07:52;;;;;;;;;;;;;;;16.74;68.50;101243.06;7397503;19;1015;-54
2023/01/29 03:10:23;;;;;;;;;;;;;;;18.21;63.91;101231.34;7400700;19;1742;-55
2023/01/29 03:12:55;;;;;;;;;;;;;;;18.69;62.56;101213.22;7400766;19;1829;-54
2023/01/29 03:15:29;;;;;;;;;;;;;;;18.86;62.03;101221.75;7400395;19;1930;-55
2023/01/29 03:18:01;;;;;;;;;;;;;;;19.04;61.91;101222.97;7400561;19;1816;-54
2023/01/29 03:20:33;;;;;;;;;;;;;;;19.16;61.30;101218.44;7400778;19;1956;-55
2023/01/29 03:23:04;;;;;;;;;;;;;;;19.05;61.84;101232.69;7400130;19;1994;-54
2023/01/29 03:33:45;;;;;;;;;;;;;;;19.11;61.77;101225.16;7408136;19;2324;-55
2023/01/29 03:36:16;;;;;;;;;;;;;;;19.11;61.99;101226.00;7406146;19;2019;-55
2023/01/29 03:38:45;;;;;;;;;;;;;;;19.15;61.64;101243.53;7405187;19;2053;-54
2023/01/29 03:41:18;;;;;;;;;;;;;;;19.17;61.85;101235.38;7404269;19;2095;-54
2023/01/29 03:43:49;;;;;;;;;;;;;;;19.27;61.42;101225.59;7402980;19;1912;-54
2023/01/29 03:46:27;;;;;;;;;;;;;;;19.22;61.70;101260.00;7404716;19;1897;-54
2023/01/29 03:49:01;;;;;;;;;;;;;;;19.16;61.76;101244.38;7403855;19;1831;-54
2023/01/29 03:51:32;;;;;;;;;;;;;;;19.32;61.42;101227.88;7407623;19;1111;-54
2023/01/29 03:54:06;;;;;;;;;;;;;;;19.29;61.49;101234.34;7405057;19;1581;-54
2023/01/29 03:56:38;;;;;;;;;;;;;;;19.23;61.45;101245.59;7402507;19;1780;-53
2023/01/29 03:59:10;;;;;;;;;;;;;;;19.26;61.29;101250.72;7406393;19;2007;-53
2023/01/29 04:01:43;;;;;;;;;;;;;;;18.53;63.50;101242.19;7404932;19;1006;-54
2023/01/29 04:04:15;;;;;;;;;;;;;;;17.75;65.49;101254.41;7405019;19;1933;-54
2023/01/29 04:06:46;;;;;;;;;;;;;;;17.73;65.82;101248.31;7407052;19;998;-54
2023/01/29 04:09:20;;;;;;;;;;;;;;;18.49;63.98;101243.41;7405301;19;2028;-54
2023/01/29 04:11:51;;;;;;;;;;;;;;;18.41;63.93;101262.75;7404968;19;1790;-54
2023/01/29 04:14:20;;;;;;;;;;;;;;;18.54;63.76;101248.41;7404498;19;2116;-54
2023/01/29 04:16:53;;;;;;;;;;;;;;;18.67;62.74;101241.97;7403810;19;1791;-54
2023/01/29 04:19:23;;;;;;;;;;;;;;;18.63;63.43;101259.25;7403656;19;2051;-54
2023/01/29 04:21:54;;;;;;;;;;;;;;;18.45;63.57;101256.19;7404905;19;1023;-54
2023/01/29 04:24:22;;;;;;;;;;;;;;;18.33;63.82;101253.63;7403130;19;2087;-55
2023/01/29 04:26:57;;;;;;;;;;;;;;;18.23;64.07;101257.00;7402875;19;964;-54
2023/01/29 04:29:36;;;;;;;;;;;;;;;18.13;64.08;101269.41;7401562;19;1884;-55
2023/01/29 04:32:11;;;;;;;;;;;;;;;18.18;64.41;101263.69;7401596;19;2051;-55
2023/01/29 04:34:47;;;;;;;;;;;;;;;18.29;63.72;101261.88;7405800;19;1830;-54
2023/01/29 04:37:18;;;;;;;;;;;;;;;18.51;63.14;101260.22;7406820;19;1043;-55
2023/01/29 04:39:50;;;;;;;;;;;;;;;18.46;63.36;101259.72;7404841;19;1691;-54
2023/01/29 04:42:25;;;;;;;;;;;;;;;18.35;63.64;101265.06;7403487;19;1954;-54
2023/01/29 04:44:59;;;;;;;;;;;;;;;18.47;63.10;101274.81;7402082;19;1989;-55
2023/01/29 04:47:34;;;;;;;;;;;;;;;18.44;63.45;101281.28;7402643;19;1813;-55
2023/01/29 04:50:06;;;;;;;;;;;;;;;18.44;63.13;101270.56;7405436;19;1883;-55
2023/01/29 04:52:41;;;;;;;;;;;;;;;18.43;63.52;101273.38;7405000;19;1032;-55
2023/01/29 04:55:15;;;;;;;;;;;;;;;17.97;64.36;101271.56;7404497;19;1783;-55
2023/01/29 04:57:46;;;;;;;;;;;;;;;17.34;66.01;101269.00;7404940;19;2073;-55
2023/01/29 05:00:20;;;;;;;;;;;;;;;16.88;67.28;101277.69;7404710;19;2020;-54
2023/01/29 05:02:51;;;;;;;;;;;;;;;16.63;68.21;101286.53;7404609;19;2031;-55
2023/01/29 05:05:21;;;;;;;;;;;;;;;16.42;68.27;101294.22;7401678;19;1866;-55
2023/01/29 05:07:50;;;;;;;;;;;;;;;16.63;69.04;101278.53;7401386;19;1001;-54
2023/01/29 05:10:20;;;;;;;;;;;;;;;17.34;66.96;101286.88;7404699;19;2070;-54
2023/01/29 05:12:52;;;;;;;;;;;;;;;18.24;63.71;101277.47;7404293;19;1030;-54
2023/01/29 05:15:21;;;;;;;;;;;;;;;18.43;63.51;101294.78;7403689;19;1317;-54
2023/01/29 05:17:52;;;;;;;;;;;;;;;18.57;63.19;101302.59;7404027;19;1746;-55
2023/01/29 05:20:25;;;;;;;;;;;;;;;18.66;62.88;101292.97;7404211;19;1543;-54
2023/01/29 05:22:54;;;;;;;;;;;;;;;18.54;62.94;101304.66;7404148;19;1105;-55
2023/01/29 05:25:24;;;;;;;;;;;;;;;18.40;63.11;101297.69;7403289;19;1862;-54
2023/01/29 05:28:03;;;;;;;;;;;;;;;18.23;63.78;101318.59;7402533;19;1638;-54
2023/01/29 05:30:31;;;;;;;;;;;;;;;18.15;63.91;101309.44;7402006;19;1033;-54
2023/01/29 05:33:02;;;;;;;;;;;;;;;18.18;63.81;101311.88;7402055;19;2352;-54
2023/01/29 05:35:30;;;;;;;;;;;;;;;18.20;63.58;101313.44;7401760;19;2102;-54
2023/01/29 05:37:59;;;;;;;;;;;;;;;18.31;63.42;101306.44;7402616;19;1042;-55
2023/01/29 05:40:28;;;;;;;;;;;;;;;18.54;62.98;101308.16;7401022;19;945;-54
2023/01/29 05:42:57;;;;;;;;;;;;;;;18.40;63.26;101317.31;7403957;19;1768;-55
2023/01/29 05:45:25;;;;;;;;;;;;;;;18.38;63.15;101313.00;7401917;19;1864;-54
2023/01/29 05:47:57;;;;;;;;;;;;;;;18.49;63.19;101324.59;7402976;19;1643;-55
2023/01/29 05:50:28;;;;;;;;;;;;;;;18.56;62.84;101327.69;7402171;19;2186;-54
2023/01/29 05:52:59;;;;;;;;;;;;;;;18.55;62.58;101327.81;7400852;19;1058;-55
2023/01/29 05:55:28;;;;;;;;;;;;;;;18.60;62.57;101326.47;7403230;19;1060;-55
2023/01/29 05:57:56;;;;;;;;;;;;;;;18.55;62.50;101330.47;7403020;19;2102;-54
2023/01/29 06:00:25;;;;;;;;;;;;;;;18.37;63.14;101340.78;7402848;19;1926;-54
2023/01/29 06:02:53;;;;;;;;;;;;;;;18.34;63.55;101355.22;7402232;19;2007;-54
2023/01/29 06:05:21;;;;;;;;;;;;;;;18.31;63.77;101349.28;7401020;19;1917;-54
2023/01/29 06:07:52;;;;;;;;;;;;;;;18.33;63.33;101358.91;7403165;19;952;-54
2023/01/29 06:10:21;;;;;;;;;;;;;;;18.41;63.23;101356.47;7403289;19;1686;-55
2023/01/29 06:12:50;;;;;;;;;;;;;;;18.32;63.19;101356.34;7403122;19;2053;-54
2023/01/29 06:15:19;;;;;;;;;;;;;;;18.46;62.89;101353.44;7402478;19;1718;-55
2023/01/29 06:17:48;;;;;;;;;;;;;;;18.54;62.61;101356.38;7402247;19;1809;-55
2023/01/29 06:20:17;;;;;;;;;;;;;;;18.45;62.90;101359.78;7401637;19;2051;-54
2023/01/29 06:22:46;;;;;;;;;;;;;;;18.53;62.61;101372.59;7402505;19;1050;-54
2023/01/29 06:25:17;;;;;;;;;;;;;;;18.61;62.56;101368.34;7401622;19;1961;-55
2023/01/29 06:27:45;;;;;;;;;;;;;;;18.55;62.40;101387.56;7400075;19;1802;-55
2023/01/29 06:30:14;;;;;;;;;;;;;;;18.58;62.72;101368.59;7399736;19;1743;-54
2023/01/29 06:32:42;;;;;;;;;;;;;;;18.61;62.26;101373.69;7399850;19;1903;-54
2023/01/29 06:35:13;;;;;;;;;;;;;;;18.62;62.41;101385.25;7398453;19;1530;-55
2023/01/29 06:37:41;;;;;;;;;;;;;;;18.62;62.65;101375.44;7397948;19;1058;-54
2023/01/29 06:40:11;;;;;;;;;;;;;;;18.48;63.00;101394.34;7402180;19;1831;-54
2023/01/29 06:42:42;;;;;;;;;;;;;;;18.40;63.25;101383.38;7401364;19;1936;-54
2023/01/29 06:45:12;;;;;;;;;;;;;;;18.42;62.67;101390.34;7399627;19;1971;-54
2023/01/29 06:47:42;;;;;;;;;;;;;;;18.40;62.72;101403.00;7402276;19;1668;-54
2023/01/29 06:50:11;;;;;;;;;;;;;;;18.38;62.97;101396.03;7400253;19;1698;-54
2023/01/29 06:52:39;;;;;;;;;;;;;;;18.34;62.79;101387.38;7401678;19;973;-54
2023/01/29 06:55:08;;;;;;;;;;;;;;;18.49;62.74;101386.22;7397186;19;1107;-54
2023/01/29 06:57:38;;;;;;;;;;;;;;;18.52;62.81;101387.78;7400784;19;1062;-54
2023/01/29 07:00:11;;;;;;;;;;;;;;;18.45;62.84;101399.97;7400190;19;941;-54
2023/01/29 07:02:42;;;;;;;;;;;;;;;18.47;62.62;101392.66;7396026;19;1033;-55
2023/01/29 07:05:11;;;;;;;;;;;;;;;18.46;62.93;101388.25;7401879;19;1875;-54
2023/01/29 07:07:39;;;;;;;;;;;;;;;18.55;62.55;101398.28;7404811;19;1216;-54
2023/01/29 07:10:09;;;;;;;;;;;;;;;18.66;61.92;101392.97;7408776;19;1769;-55
2023/01/29 07:12:38;;;;;;;;;;;;;;;18.60;62.30;101398.81;7408354;19;1446;-55
2023/01/29 07:15:11;;;;;;;;;;;;;;;18.57;62.39;101400.84;7408177;19;1818;-54
2023/01/29 07:17:39;;;;;;;;;;;;;;;17.92;64.06;101394.13;7407773;19;1840;-55
2023/01/29 07:20:08;;;;;;;;;;;;;;;17.35;65.64;101399.06;7404789;19;1026;-55
2023/01/29 07:22:37;;;;;;;;;;;;;;;16.99;66.90;101419.38;7404428;19;1051;-55
2023/01/29 07:25:06;;;;;;;;;;;;;;;16.74;67.58;101414.84;7407127;19;1853;-55
2023/01/29 07:27:34;;;;;;;;;;;;;;;16.61;68.01;101419.28;7405661;19;2094;-55
2023/01/29 07:30:03;;;;;;;;;;;;;;;17.07;66.88;101417.03;7405832;19;1692;-54
2023/01/29 07:32:34;;;;;;;;;;;;;;;17.89;64.44;101404.06;7405332;19;1787;-54
2023/01/29 07:35:03;;;;;;;;;;;;;;;18.28;62.69;101420.84;7404230;19;1762;-54
2023/01/29 07:37:32;;;;;;;;;;;;;;;18.60;62.17;101430.06;7404266;19;1025;-54
2023/01/29 07:40:01;;;;;;;;;;;;;;;18.66;61.83;101441.19;7407575;19;1001;-54
2023/01/29 07:42:29;;;;;;;;;;;;;;;18.62;61.83;101434.34;7407279;19;1824;-54
2023/01/29 07:44:59;;;;;;;;;;;;;;;18.79;61.58;101445.59;7405587;19;1909;-54
2023/01/29 07:47:29;;;;;;;;;;;;;;;18.75;62.14;101438.78;7407485;19;1003;-55
2023/01/29 07:50:01;;;;;;;;;;;;;;;18.65;62.16;101439.47;7405660;19;1794;-54
2023/01/29 07:52:35;;;;;;;;;;;;;;;18.60;62.14;101433.63;7403297;19;1038;-54
2023/01/29 07:55:03;;;;;;;;;;;;;;;18.45;62.77;101410.66;7405109;19;1935;-54
2023/01/29 07:57:32;;;;;;;;;;;;;;;18.41;62.64;101433.28;7407646;19;1054;-54
2023/01/29 08:00:02;;;;;;;;;;;;;;;18.31;62.69;101433.13;7406272;19;1689;-55
2023/01/29 08:02:31;;;;;;;;;;;;;;;18.27;63.00;101437.00;7406165;19;1025;-55
2023/01/29 08:05:02;;;;;;;;;;;;;;;18.23;63.40;101417.63;7404502;19;1864;-55
2023/01/29 08:07:31;;;;;;;;;;;;;;;18.25;62.90;101428.25;7401934;19;1129;-55
2023/01/29 08:09:59;;;;;;;;;;;;;;;18.22;62.92;101445.38;7406828;19;2016;-54
2023/01/29 08:12:28;;;;;;;;;;;;;;;18.20;63.14;101427.72;7403011;19;1033;-54
2023/01/29 08:14:56;;;;;;;;;;;;;;;18.31;62.90;101434.97;7406435;19;1535;-55
2023/01/29 08:17:25;;;;;;;;;;;;;;;18.36;62.48;101443.47;7403360;19;2025;-54
2023/01/29 08:19:53;;;;;;;;;;;;;;;18.37;62.76;101445.22;7404998;19;1485;-54
2023/01/29 08:22:24;;;;;;;;;;;;;;;18.47;62.24;101446.22;7403176;19;1015;-54
2023/01/29 08:24:52;;;;;;;;;;;;;;;18.46;62.58;101455.22;7405301;19;1869;-54
2023/01/29 08:27:20;;;;;;;;;;;;;;;18.45;62.44;101450.84;7404308;19;1793;-54
2023/01/29 08:29:51;;;;;;;;;;;;;;;18.60;61.90;101454.16;7402697;19;1917;-54
2023/01/29 08:32:22;;;;;;;;;;;;;;;18.52;62.23;101454.75;7402478;19;1776;-54
2023/01/29 08:34:50;;;;;;;;;;;;;;;18.52;62.09;101462.78;7401995;19;1785;-54
2023/01/29 08:37:20;;;;;;;;;;;;;;;18.62;61.79;101461.16;7401942;19;1101;-54
2023/01/29 08:39:51;;;;;;;;;;;;;;;18.76;61.45;101453.88;7401600;19;1038;-54
2023/01/29 08:42:28;;;;;;;;;;;;;;;18.67;61.83;101464.31;7402040;19;1059;-54
2023/01/29 08:44:56;;;;;;;;;;;;;;;18.63;61.82;101457.47;7405201;19;1861;-54
2023/01/29 08:47:24;;;;;;;;;;;;;;;18.56;62.11;101461.59;7401441;19;1153;-54
2023/01/29 08:49:53;;;;;;;;;;;;;;;18.58;62.15;101465.03;7403275;19;1836;-54
2023/01/29 08:52:22;;;;;;;;;;;;;;;18.46;62.48;101469.47;7401338;19;1124;-55
2023/01/29 08:54:53;;;;;;;;;;;;;;;18.48;62.62;101477.38;7400920;19;1104;-54
2023/01/29 08:57:21;;;;;;;;;;;;;;;18.52;62.29;101481.53;7404852;19;1851;-54
2023/01/29 08:59:49;;;;;;;;;;;;;;;18.48;62.08;101475.56;7401085;19;1121;-54
2023/01/29 09:02:17;;;;;;;;;;;;;;;18.37;62.40;101488.91;7403048;19;1637;-53
2023/01/29 09:04:46;;;;;;;;;;;;;;;18.39;62.42;101475.41;7402541;19;1865;-54
2023/01/29 09:07:20;;;;;;;;;;;;;;;18.37;62.75;101480.88;7402027;19;1478;-54
2023/01/29 09:09:49;;;;;;;;;;;;;;;18.35;62.38;101461.38;7401750;19;1951;-54
2023/01/29 09:12:22;;;;;;;;;;;;;;;18.33;62.58;101479.38;7402108;19;1769;-54
2023/01/29 09:14:53;;;;;;;;;;;;;;;18.40;62.59;101494.03;7402631;19;1544;-54
2023/01/29 09:17:21;;;;;;;;;;;;;;;18.37;62.60;101485.38;7400760;19;1717;-54
2023/01/29 09:19:51;;;;;;;;;;;;;;;18.37;62.61;101477.34;7400711;19;1546;-54
2023/01/29 09:22:20;;;;;;;;;;;;;;;18.48;62.05;101474.69;7403800;19;1018;-55
2023/01/29 09:24:48;;;;;;;;;;;;;;;18.50;62.01;101478.13;7404513;19;2118;-54
2023/01/29 09:27:16;;;;;;;;;;;;;;;18.53;62.15;101466.34;7400141;19;956;-54
2023/01/29 09:29:48;;;;;;;;;;;;;;;18.58;62.07;101464.16;7400765;19;1867;-54
2023/01/29 09:32:20;;;;;;;;;;;;;;;18.51;62.36;101450.38;7400841;19;1036;-54
2023/01/29 09:34:49;;;;;;;;;;;;;;;18.36;62.36;101457.72;7400187;19;1477;-54
2023/01/29 09:37:17;;;;;;;;;;;;;;;18.32;62.67;101455.41;7399807;19;1046;-55
2023/01/29 09:39:45;;;;;;;;;;;;;;;18.40;62.62;101442.28;7402719;19;1718;-54
2023/01/29 09:42:20;;;;;;;;;;;;;;;18.36;62.45;101443.47;7402992;19;1341;-54
2023/01/29 09:44:57;;;;;;;;;;;;;;;18.37;62.43;101448.72;7398425;19;921;-54
2023/01/29 09:47:28;;;;;;;;;;;;;;;18.31;62.74;101446.50;7402345;19;1419;-54
2023/01/29 09:50:00;;;;;;;;;;;;;;;18.32;62.52;101436.66;7401762;19;1486;-54
2023/01/29 09:52:32;;;;;;;;;;;;;;;18.28;62.73;101423.50;7403088;19;1031;-55
2023/01/29 09:55:05;;;;;;;;;;;;;;;18.36;62.48;101438.97;7402886;19;2017;-54
2023/01/29 09:57:39;;;;;;;;;;;;;;;18.26;62.60;101454.91;7399058;19;1030;-54
2023/01/29 10:00:15;;;;;;;;;;;;;;;18.32;62.55;101439.34;7402265;19;2120;-55
2023/01/29 10:02:52;;;;;;;;;;;;;;;18.45;61.90;101430.25;7402154;19;1388;-55
2023/01/29 10:05:29;;;;;;;;;;;;;;;18.46;62.11;101433.78;7403213;19;1859;-55
2023/01/29 10:08:09;;;;;;;;;;;;;;;18.45;62.00;101437.44;7398715;19;2039;-55
2023/01/29 10:10:46;;;;;;;;;;;;;;;18.47;62.16;101435.50;7398842;19;1050;-55
2023/01/29 10:13:20;;;;;;;;;;;;;;;18.34;62.38;101432.03;7398526;19;900;-54
2023/01/29 10:15:57;;;;;;;;;;;;;;;18.31;62.64;101429.59;7399046;19;1035;-55
2023/01/29 10:18:38;;;;;;;;;;;;;;;18.32;62.73;101421.44;7403325;19;1843;-54
2023/01/29 10:21:16;;;;;;;;;;;;;;;18.23;62.70;101417.63;7399369;19;1013;-55
2023/01/29 10:23:49;;;;;;;;;;;;;;;18.27;62.66;101412.91;7399986;19;1754;-54
2023/01/29 10:26:18;;;;;;;;;;;;;;;18.37;62.42;101413.94;7397353;19;1851;-55
2023/01/29 10:28:50;;;;;;;;;;;;;;;18.49;62.00;101398.75;7402239;19;1028;-54
2023/01/29 10:31:31;;;;;;;;;;;;;;;18.60;61.93;101419.34;7401340;19;1065;-54
2023/01/29 10:34:03;;;;;;;;;;;;;;;17.87;63.16;101403.34;7397976;19;1121;-54
2023/01/29 10:36:41;;;;;;;;;;;;;;;17.37;65.06;101402.47;7398536;19;1032;-54
2023/01/29 10:39:16;;;;;;;;;;;;;;;17.02;65.99;101424.50;7398211;19;1451;-54
2023/01/29 10:41:50;;;;;;;;;;;;;;;16.76;65.84;101412.91;7401288;19;1598;-54
2023/01/29 10:44:29;;;;;;;;;;;;;;;16.92;66.77;101420.75;7399345;19;1431;-54
2023/01/29 10:47:09;;;;;;;;;;;;;;;17.82;64.14;101408.13;7396254;19;1881;-54
2023/01/29 10:49:49;;;;;;;;;;;;;;;18.61;61.81;101410.34;7398437;19;1029;-54
2023/01/29 10:52:28;;;;;;;;;;;;;;;18.81;61.09;101423.09;7400241;19;1121;-54
2023/01/29 10:55:02;;;;;;;;;;;;;;;18.91;60.63;101407.16;7396906;19;1166;-54
2023/01/29 10:57:42;;;;;;;;;;;;;;;18.72;61.45;101417.56;7400734;19;1795;-54
2023/01/29 11:00:15;;;;;;;;;;;;;;;18.60;61.58;101385.41;7400676;19;1962;-54
2023/01/29 11:02:50;;;;;;;;;;;;;;;18.53;61.96;101396.69;7401059;19;1937;-54
2023/01/29 11:05:21;;;;;;;;;;;;;;;18.52;61.84;101381.59;7400937;19;1834;-54
2023/01/29 11:07:56;;;;;;;;;;;;;;;18.51;62.13;101394.13;7397377;19;1994;-54
2023/01/29 11:10:25;;;;;;;;;;;;;;;18.40;62.33;101383.38;7397209;19;955;-54
2023/01/29 11:12:54;;;;;;;;;;;;;;;18.45;61.91;101378.53;7401152;19;1810;-54
2023/01/29 11:15:26;;;;;;;;;;;;;;;18.46;62.07;101388.25;7400999;19;1796;-54
2023/01/29 11:18:12;;;;;;;;;;;;;;;18.43;61.77;101381.31;7400382;19;1750;-55
2023/01/29 11:20:41;;;;;;;;;;;;;;;18.47;61.91;101381.94;7396690;19;1018;-54
2023/01/29 11:23:26;;;;;;;;;;;;;;;18.49;62.10;101380.00;7397456;19;1668;-55
2023/01/29 11:25:55;;;;;;;;;;;;;;;18.45;62.22;101367.81;7396584;19;1849;-54
2023/01/29 11:28:40;;;;;;;;;;;;;;;18.51;62.11;101378.06;7396618;19;1062;-54
2023/01/29 11:31:18;;;;;;;;;;;;;;;18.46;61.70;101369.50;7399657;19;1906;-54
2023/01/29 11:33:50;;;;;;;;;;;;;;;18.49;61.91;101386.22;7400329;19;1802;-54
2023/01/29 11:36:23;;;;;;;;;;;;;;;18.52;61.88;101390.47;7399977;19;1511;-54
2023/01/29 11:39:10;;;;;;;;;;;;;;;18.42;62.17;101374.28;7398473;19;1682;-55
2023/01/29 11:41:46;;;;;;;;;;;;;;;18.44;61.64;101377.69;7398292;19;965;-54
2023/01/29 11:44:28;;;;;;;;;;;;;;;18.45;61.92;101381.22;7398583;19;1785;-54
2023/01/29 11:46:57;;;;;;;;;;;;;;;18.39;62.12;101376.31;7396340;19;1892;-54
2023/01/29 11:49:32;;;;;;;;;;;;;;;18.40;61.83;101380.69;7397917;19;1837;-54
2023/01/29 11:52:03;;;;;;;;;;;;;;;18.32;62.30;101367.03;7402183;19;1208;-54
2023/01/29 11:54:34;;;;;;;;;;;;;;;18.37;62.03;101380.94;7403060;19;1046;-54
2023/01/29 11:57:04;;;;;;;;;;;;;;;18.38;62.28;101382.63;7400811;19;1143;-54
2023/01/29 11:59:42;;;;;;;;;;;;;;;18.36;61.91;101360.47;7406054;19;1856;-54
2023/01/29 12:02:25;;;;;;;;;;;;;;;18.34;62.08;101368.63;7404812;19;1953;-54
2023/01/29 12:04:59;;;;;;;;;;;;;;;18.35;61.95;101372.19;7402934;19;1089;-54
2023/01/29 12:07:30;;;;;;;;;;;;;;;18.37;62.00;101365.72;7400885;19;1895;-54
2023/01/29 12:10:00;;;;;;;;;;;;;;;18.40;61.93;101364.63;7402711;19;1042;-54
2023/01/29 12:12:32;;;;;;;;;;;;;;;18.42;61.81;101354.66;7406182;19;1009;-54
2023/01/29 12:15:18;;;;;;;;;;;;;;;18.47;61.61;101355.16;7402674;19;1923;-54
2023/01/29 12:17:55;;;;;;;;;;;;;;;18.46;61.59;101356.13;7405804;19;1426;-54
2023/01/29 12:20:31;;;;;;;;;;;;;;;18.44;62.08;101356.25;7404090;19;1091;-54
2023/01/29 12:23:07;;;;;;;;;;;;;;;18.50;61.83;101344.19;7407009;19;1068;-54
2023/01/29 12:25:54;;;;;;;;;;;;;;;18.46;61.75;101361.47;7402873;19;1029;-54
2023/01/29 12:28:33;;;;;;;;;;;;;;;18.39;62.00;101354.91;7405757;19;1017;-54
2023/01/29 12:31:13;;;;;;;;;;;;;;;18.38;62.12;101342.47;7405240;19;1922;-54
2023/01/29 12:33:48;;;;;;;;;;;;;;;18.43;61.84;101356.38;7405244;19;1803;-54
2023/01/29 12:36:22;;;;;;;;;;;;;;;18.41;61.80;101351.13;7401496;19;1162;-54
2023/01/29 12:38:57;;;;;;;;;;;;;;;18.51;61.55;101356.63;7401826;19;1150;-54
2023/01/29 12:41:41;;;;;;;;;;;;;;;18.49;61.75;101358.59;7401842;19;1007;-54
2023/01/29 12:44:14;;;;;;;;;;;;;;;18.49;61.53;101369.28;7403678;19;1501;-54
2023/01/29 12:46:45;;;;;;;;;;;;;;;18.78;61.14;101366.19;7401486;19;1849;-54
2023/01/29 12:49:17;;;;;;;;;;;;;;;18.91;60.76;101345.53;7402045;19;1029;-54
2023/01/29 12:51:53;;;;;;;;;;;;;;;19.13;60.12;101354.56;7406001;19;1736;-54
2023/01/29 12:54:23;;;;;;;;;;;;;;;19.25;59.54;101366.97;7401425;19;1069;-54
2023/01/29 12:56:54;;;;;;;;;;;;;;;19.13;60.13;101359.91;7401247;19;1855;-54
2023/01/29 12:59:28;;;;;;;;;;;;;;;19.01;60.32;101365.25;7403022;19;1507;-53
2023/01/29 13:01:57;;;;;;;;;;;;;;;18.79;60.80;101370.56;7402026;19;1850;-53
2023/01/29 13:04:32;;;;;;;;;;;;;;;18.82;61.00;101367.69;7402158;19;1623;-54
2023/01/29 13:07:07;;;;;;;;;;;;;;;18.82;60.84;101376.59;7400390;19;1837;-54
2023/01/29 13:09:38;;;;;;;;;;;;;;;18.82;60.84;101375.72;7401550;19;1025;-54
2023/01/29 13:12:13;;;;;;;;;;;;;;;18.98;60.53;101381.59;7400619;19;1858;-54
2023/01/29 13:14:45;;;;;;;;;;;;;;;19.05;60.01;101369.41;7401184;19;1020;-54
2023/01/29 13:17:24;;;;;;;;;;;;;;;19.07;60.16;101366.63;7400867;19;1155;-54
2023/01/29 13:19:54;;;;;;;;;;;;;;;19.13;60.12;101365.28;7402697;19;1682;-54
2023/01/29 13:22:26;;;;;;;;;;;;;;;19.16;59.95;101356.97;7403288;19;1141;-54
2023/01/29 13:24:56;;;;;;;;;;;;;;;19.21;59.88;101362.84;7404275;19;1505;-53
2023/01/29 13:27:27;;;;;;;;;;;;;;;19.15;60.03;101388.31;7400414;19;1851;-54
2023/01/29 13:29:56;;;;;;;;;;;;;;;19.09;60.33;101375.38;7400082;19;1124;-54
2023/01/29 13:32:26;;;;;;;;;;;;;;;18.88;60.49;101381.47;7399947;19;1125;-54
2023/01/29 13:35:06;;;;;;;;;;;;;;;19.13;60.17;101378.69;7400959;19;1702;-53
2023/01/29 13:37:39;;;;;;;;;;;;;;;19.22;59.83;101372.59;7399994;19;1053;-54
2023/01/29 13:40:08;;;;;;;;;;;;;;;19.04;59.97;101369.56;7404222;19;1786;-53
2023/01/29 13:42:41;;;;;;;;;;;;;;;19.08;60.05;101371.84;7403788;19;1101;-54